LBBG Airport Information

Runway Information
Runway 04 Length 10499 ft width 148 ft
Elevation 89 ft Threshold 0 ft Heading 44
Runway 22 Length 10499 ft Width 148 ft
Elevation 121 ft Threshold 0 ft Heading 224
Airport Frequencies
Type APP Name APP Frequency 125.1 MHZ
Type ATIS Name ATIS Frequency 120.95 MHZ
Type TWR Name TWR Frequency 118 MHZ
Airport Navaids
Type VOR-DME Name Burgas Frequency 112000 KHZ
Type NDB Name Burgas Frequency 356 KHZ
Airport Weather Information & NOTAM
ADDS - METARS form results

(1737 UTC 17 August 2019)
Data provider http://aviationweather.gov/metar/data/
 
METAR text: LBBG 171730Z 10005KT CAVOK 22/14 Q1014 NOSIG
Conditions at: LBBG (BURGAS , BG) observed 1730 UTC 17 August 2019
Temperature: 22.0°C (72°F)
Dewpoint: 14.0°C (57°F) [RH = 60%]
Pressure (altimeter): 29.94 inches Hg (1014.0 mb)
Winds: from the E (100 degrees) at 6 MPH (5 knots; 2.6 m/s)
Visibility: 6 or more miles (10+ km)
Ceiling: ceiling and visibility are OK
Clouds: unknown
Weather: no significant weather observed at this time

METAR text: LBBG 171700Z 10007KT CAVOK 23/15 Q1014 NOSIG
Conditions at: LBBG (BURGAS , BG) observed 1700 UTC 17 August 2019
Temperature: 23.0°C (73°F)
Dewpoint: 15.0°C (59°F) [RH = 61%]
Pressure (altimeter): 29.94 inches Hg (1014.0 mb)
Winds: from the E (100 degrees) at 8 MPH (7 knots; 3.6 m/s)
Visibility: 6 or more miles (10+ km)
Ceiling: ceiling and visibility are OK
Clouds: unknown
Weather: no significant weather observed at this time

Forecast for: LBBG (BURGAS , BG)
Text: TAF LBBG 171700Z 1718/1818 VRB04KT CAVOK
Forecast period: 1800 UTC 17 August 2019 to 0800 UTC 18 August 2019
Forecast type: FROM: standard forecast or significant change
Winds: variable direction winds at 5 MPH (4 knots; 2.1 m/s)
Visibility: 6 or more miles 10+ km)
Ceiling: unknown
Clouds: missing
Weather: NSW  (no significant weather)
Text: BECMG 1808/1810 12012KT
Forecast period: 0800 to 1800 UTC 18 August 2019
Forecast type: BECOMING: Conditions expected to become as follows by 1000 UTC 18 August 2019
Winds: from the ESE (120 degrees) at 14 MPH (12 knots; 6.2 m/s)
Visibility: 6 or more miles 10+ km)
Ceiling: unknown
Clouds: missing
Weather: NSW  (no significant weather)